sensor_id;sensor_type;location;lat;lon;timestamp;P1;durP1;ratioP1;P2;durP2;ratioP2
69358;SDS011;56520;49.066;8.660;2023-06-05T00:00:38;3.28;;;1.20;;
69358;SDS011;56520;49.066;8.660;2023-06-05T00:03:04;2.25;;;0.80;;
69358;SDS011;56520;49.066;8.660;2023-06-05T00:05:29;2.90;;;1.00;;
69358;SDS011;56520;49.066;8.660;2023-06-05T00:07:56;4.10;;;1.20;;
69358;SDS011;56520;49.066;8.660;2023-06-05T00:10:21;1.98;;;0.80;;
69358;SDS011;56520;49.066;8.660;2023-06-05T00:12:47;3.15;;;1.02;;
69358;SDS011;56520;49.066;8.660;2023-06-05T00:15:12;3.17;;;1.20;;
69358;SDS011;56520;49.066;8.660;2023-06-05T00:17:38;2.63;;;1.00;;
69358;SDS011;56520;49.066;8.660;2023-06-05T00:20:03;3.67;;;0.90;;
69358;SDS011;56520;49.066;8.660;2023-06-05T00:22:30;3.60;;;1.40;;
69358;SDS011;56520;49.066;8.660;2023-06-05T00:24:58;2.88;;;1.00;;
69358;SDS011;56520;49.066;8.660;2023-06-05T00:27:24;3.90;;;1.33;;
69358;SDS011;56520;49.066;8.660;2023-06-05T00:29:49;3.05;;;1.17;;
69358;SDS011;56520;49.066;8.660;2023-06-05T00:32:15;3.50;;;1.05;;
69358;SDS011;56520;49.066;8.660;2023-06-05T00:34:41;3.10;;;1.15;;
69358;SDS011;56520;49.066;8.660;2023-06-05T00:37:06;4.38;;;1.73;;
69358;SDS011;56520;49.066;8.660;2023-06-05T00:39:32;2.88;;;0.93;;
69358;SDS011;56520;49.066;8.660;2023-06-05T00:41:58;5.55;;;1.20;;
69358;SDS011;56520;49.066;8.660;2023-06-05T00:44:23;3.63;;;1.23;;
69358;SDS011;56520;49.066;8.660;2023-06-05T00:46:49;2.70;;;1.00;;
69358;SDS011;56520;49.066;8.660;2023-06-05T00:49:16;3.70;;;1.10;;
69358;SDS011;56520;49.066;8.660;2023-06-05T00:51:43;3.88;;;1.27;;
69358;SDS011;56520;49.066;8.660;2023-06-05T00:54:10;3.25;;;1.08;;
69358;SDS011;56520;49.066;8.660;2023-06-05T00:56:36;3.67;;;1.25;;
69358;SDS011;56520;49.066;8.660;2023-06-05T00:59:04;3.42;;;1.13;;
69358;SDS011;56520;49.066;8.660;2023-06-05T01:01:30;2.75;;;1.00;;
69358;SDS011;56520;49.066;8.660;2023-06-05T01:03:59;2.53;;;0.93;;
69358;SDS011;56520;49.066;8.660;2023-06-05T01:06:26;2.38;;;0.80;;
69358;SDS011;56520;49.066;8.660;2023-06-05T01:08:52;2.13;;;0.80;;
69358;SDS011;56520;49.066;8.660;2023-06-05T01:16:53;2.53;;;0.95;;
69358;SDS011;56520;49.066;8.660;2023-06-05T01:19:19;3.92;;;1.10;;
69358;SDS011;56520;49.066;8.660;2023-06-05T01:21:46;2.83;;;0.98;;
69358;SDS011;56520;49.066;8.660;2023-06-05T01:24:12;2.33;;;0.95;;
69358;SDS011;56520;49.066;8.660;2023-06-05T01:26:45;3.60;;;1.17;;
69358;SDS011;56520;49.066;8.660;2023-06-05T01:29:21;2.65;;;0.90;;
69358;SDS011;56520;49.066;8.660;2023-06-05T01:31:57;4.38;;;1.20;;
69358;SDS011;56520;49.066;8.660;2023-06-05T01:34:28;2.85;;;1.02;;
69358;SDS011;56520;49.066;8.660;2023-06-05T01:36:53;2.67;;;0.88;;
69358;SDS011;56520;49.066;8.660;2023-06-05T01:39:22;3.00;;;1.08;;
69358;SDS011;56520;49.066;8.660;2023-06-05T01:41:48;3.63;;;1.38;;
69358;SDS011;56520;49.066;8.660;2023-06-05T01:44:15;3.03;;;1.10;;
69358;SDS011;56520;49.066;8.660;2023-06-05T01:46:43;3.47;;;1.33;;
69358;SDS011;56520;49.066;8.660;2023-06-05T01:49:08;3.60;;;1.13;;
69358;SDS011;56520;49.066;8.660;2023-06-05T01:51:35;3.70;;;1.20;;
69358;SDS011;56520;49.066;8.660;2023-06-05T01:54:01;3.85;;;1.20;;
69358;SDS011;56520;49.066;8.660;2023-06-05T01:56:30;4.28;;;1.25;;
69358;SDS011;56520;49.066;8.660;2023-06-05T01:58:57;2.78;;;1.00;;
69358;SDS011;56520;49.066;8.660;2023-06-05T02:01:23;2.38;;;1.02;;
69358;SDS011;56520;49.066;8.660;2023-06-05T02:04:06;4.43;;;1.30;;
69358;SDS011;56520;49.066;8.660;2023-06-05T02:06:32;3.38;;;1.20;;
69358;SDS011;56520;49.066;8.660;2023-06-05T02:09:06;3.22;;;1.25;;
69358;SDS011;56520;49.066;8.660;2023-06-05T02:11:33;3.90;;;1.20;;
69358;SDS011;56520;49.066;8.660;2023-06-05T02:14:01;4.38;;;1.48;;
69358;SDS011;56520;49.066;8.660;2023-06-05T02:16:29;4.43;;;1.25;;
69358;SDS011;56520;49.066;8.660;2023-06-05T02:18:55;3.42;;;1.13;;
69358;SDS011;56520;49.066;8.660;2023-06-05T02:21:22;4.25;;;1.38;;
69358;SDS011;56520;49.066;8.660;2023-06-05T02:23:47;4.32;;;1.20;;
69358;SDS011;56520;49.066;8.660;2023-06-05T02:26:14;2.85;;;1.02;;
69358;SDS011;56520;49.066;8.660;2023-06-05T02:28:43;5.20;;;1.25;;
69358;SDS011;56520;49.066;8.660;2023-06-05T02:31:08;3.22;;;1.13;;
69358;SDS011;56520;49.066;8.660;2023-06-05T02:33:35;4.38;;;1.25;;
69358;SDS011;56520;49.066;8.660;2023-06-05T02:36:00;2.95;;;1.00;;
69358;SDS011;56520;49.066;8.660;2023-06-05T02:38:26;7.43;;;1.20;;
69358;SDS011;56520;49.066;8.660;2023-06-05T02:40:53;3.42;;;1.35;;
69358;SDS011;56520;49.066;8.660;2023-06-05T02:43:19;3.83;;;1.33;;
69358;SDS011;56520;49.066;8.660;2023-06-05T02:45:46;3.90;;;1.15;;
69358;SDS011;56520;49.066;8.660;2023-06-05T02:48:12;3.90;;;1.42;;
69358;SDS011;56520;49.066;8.660;2023-06-05T02:50:37;3.38;;;1.15;;
69358;SDS011;56520;49.066;8.660;2023-06-05T02:53:02;2.63;;;0.98;;
69358;SDS011;56520;49.066;8.660;2023-06-05T02:55:28;3.47;;;1.20;;
69358;SDS011;56520;49.066;8.660;2023-06-05T02:57:54;4.43;;;1.55;;
69358;SDS011;56520;49.066;8.660;2023-06-05T03:00:22;2.72;;;1.02;;
69358;SDS011;56520;49.066;8.660;2023-06-05T03:02:48;2.85;;;0.90;;
69358;SDS011;56520;49.066;8.660;2023-06-05T03:05:17;2.53;;;1.00;;
69358;SDS011;56520;49.066;8.660;2023-06-05T03:07:49;5.20;;;1.42;;
69358;SDS011;56520;49.066;8.660;2023-06-05T03:10:18;2.92;;;1.08;;
69358;SDS011;56520;49.066;8.660;2023-06-05T03:12:44;3.30;;;1.13;;
69358;SDS011;56520;49.066;8.660;2023-06-05T03:15:09;2.05;;;0.82;;
69358;SDS011;56520;49.066;8.660;2023-06-05T03:17:36;2.78;;;1.05;;
69358;SDS011;56520;49.066;8.660;2023-06-05T03:20:02;2.90;;;1.00;;
69358;SDS011;56520;49.066;8.660;2023-06-05T03:22:27;4.03;;;1.25;;
69358;SDS011;56520;49.066;8.660;2023-06-05T03:24:53;2.83;;;0.95;;
69358;SDS011;56520;49.066;8.660;2023-06-05T03:27:19;3.03;;;1.00;;
69358;SDS011;56520;49.066;8.660;2023-06-05T03:29:44;4.53;;;1.35;;
69358;SDS011;56520;49.066;8.660;2023-06-05T03:32:09;3.15;;;1.02;;
69358;SDS011;56520;49.066;8.660;2023-06-05T03:34:35;3.35;;;1.30;;
69358;SDS011;56520;49.066;8.660;2023-06-05T03:37:02;3.42;;;1.25;;
69358;SDS011;56520;49.066;8.660;2023-06-05T03:39:28;3.05;;;1.05;;
69358;SDS011;56520;49.066;8.660;2023-06-05T03:41:53;3.72;;;1.20;;
69358;SDS011;56520;49.066;8.660;2023-06-05T03:44:19;3.13;;;0.98;;
69358;SDS011;56520;49.066;8.660;2023-06-05T03:46:45;3.13;;;1.20;;
69358;SDS011;56520;49.066;8.660;2023-06-05T03:49:13;2.13;;;1.05;;
69358;SDS011;56520;49.066;8.660;2023-06-05T03:51:39;3.60;;;1.05;;
69358;SDS011;56520;49.066;8.660;2023-06-05T03:54:05;3.97;;;1.35;;
69358;SDS011;56520;49.066;8.660;2023-06-05T03:56:30;3.25;;;1.02;;
69358;SDS011;56520;49.066;8.660;2023-06-05T03:59:02;3.42;;;1.13;;
69358;SDS011;56520;49.066;8.660;2023-06-05T04:01:34;3.95;;;1.35;;
69358;SDS011;56520;49.066;8.660;2023-06-05T04:04:02;3.50;;;1.27;;
69358;SDS011;56520;49.066;8.660;2023-06-05T04:06:30;3.90;;;1.33;;
69358;SDS011;56520;49.066;8.660;2023-06-05T04:08:57;4.05;;;1.13;;
69358;SDS011;56520;49.066;8.660;2023-06-05T04:11:23;3.03;;;1.02;;
69358;SDS011;56520;49.066;8.660;2023-06-05T04:13:52;2.88;;;1.10;;
69358;SDS011;56520;49.066;8.660;2023-06-05T04:16:18;3.15;;;1.10;;
69358;SDS011;56520;49.066;8.660;2023-06-05T04:18:43;3.90;;;1.23;;
69358;SDS011;56520;49.066;8.660;2023-06-05T04:21:09;3.55;;;1.13;;
69358;SDS011;56520;49.066;8.660;2023-06-05T04:23:34;4.05;;;1.15;;
69358;SDS011;56520;49.066;8.660;2023-06-05T04:26:01;3.67;;;1.35;;
69358;SDS011;56520;49.066;8.660;2023-06-05T04:28:28;2.92;;;1.00;;
69358;SDS011;56520;49.066;8.660;2023-06-05T04:30:54;3.70;;;1.08;;
69358;SDS011;56520;49.066;8.660;2023-06-05T04:33:20;4.07;;;1.10;;
69358;SDS011;56520;49.066;8.660;2023-06-05T04:35:46;3.90;;;1.25;;
69358;SDS011;56520;49.066;8.660;2023-06-05T04:38:11;3.05;;;1.23;;
69358;SDS011;56520;49.066;8.660;2023-06-05T04:40:37;3.97;;;1.30;;
69358;SDS011;56520;49.066;8.660;2023-06-05T04:43:02;3.45;;;1.20;;
69358;SDS011;56520;49.066;8.660;2023-06-05T04:45:28;4.45;;;1.45;;
69358;SDS011;56520;49.066;8.660;2023-06-05T04:47:53;4.70;;;1.40;;
69358;SDS011;56520;49.066;8.660;2023-06-05T04:50:22;4.07;;;1.48;;
69358;SDS011;56520;49.066;8.660;2023-06-05T04:52:50;4.00;;;1.30;;
69358;SDS011;56520;49.066;8.660;2023-06-05T04:55:15;3.80;;;1.10;;
69358;SDS011;56520;49.066;8.660;2023-06-05T04:57:41;3.50;;;1.33;;
69358;SDS011;56520;49.066;8.660;2023-06-05T05:00:06;3.38;;;1.20;;
69358;SDS011;56520;49.066;8.660;2023-06-05T05:02:32;3.53;;;1.25;;
69358;SDS011;56520;49.066;8.660;2023-06-05T05:04:58;4.65;;;1.40;;
69358;SDS011;56520;49.066;8.660;2023-06-05T05:07:23;4.13;;;1.38;;
69358;SDS011;56520;49.066;8.660;2023-06-05T05:09:51;3.97;;;1.10;;
69358;SDS011;56520;49.066;8.660;2023-06-05T05:12:16;4.63;;;1.33;;
69358;SDS011;56520;49.066;8.660;2023-06-05T05:14:42;4.30;;;1.30;;
69358;SDS011;56520;49.066;8.660;2023-06-05T05:17:09;4.50;;;1.40;;
69358;SDS011;56520;49.066;8.660;2023-06-05T05:19:35;3.85;;;1.50;;
69358;SDS011;56520;49.066;8.660;2023-06-05T05:22:00;3.97;;;1.35;;
69358;SDS011;56520;49.066;8.660;2023-06-05T05:24:25;4.10;;;1.40;;
69358;SDS011;56520;49.066;8.660;2023-06-05T05:26:51;4.85;;;1.30;;
69358;SDS011;56520;49.066;8.660;2023-06-05T05:29:17;3.25;;;1.20;;
69358;SDS011;56520;49.066;8.660;2023-06-05T05:31:43;3.40;;;1.25;;
69358;SDS011;56520;49.066;8.660;2023-06-05T05:34:09;5.60;;;1.48;;
69358;SDS011;56520;49.066;8.660;2023-06-05T05:36:34;3.90;;;1.30;;
69358;SDS011;56520;49.066;8.660;2023-06-05T05:39:01;3.35;;;1.10;;
69358;SDS011;56520;49.066;8.660;2023-06-05T05:41:27;2.92;;;1.20;;
69358;SDS011;56520;49.066;8.660;2023-06-05T05:43:53;3.30;;;1.08;;
69358;SDS011;56520;49.066;8.660;2023-06-05T05:46:18;3.78;;;1.25;;
69358;SDS011;56520;49.066;8.660;2023-06-05T05:48:43;3.08;;;1.08;;
69358;SDS011;56520;49.066;8.660;2023-06-05T05:51:09;4.85;;;1.25;;
69358;SDS011;56520;49.066;8.660;2023-06-05T05:53:34;3.78;;;1.20;;
69358;SDS011;56520;49.066;8.660;2023-06-05T05:56:01;3.75;;;1.20;;
69358;SDS011;56520;49.066;8.660;2023-06-05T05:58:26;4.07;;;1.40;;
69358;SDS011;56520;49.066;8.660;2023-06-05T06:00:52;4.20;;;1.40;;
69358;SDS011;56520;49.066;8.660;2023-06-05T06:03:17;4.60;;;1.45;;
69358;SDS011;56520;49.066;8.660;2023-06-05T06:05:43;6.70;;;1.13;;
69358;SDS011;56520;49.066;8.660;2023-06-05T06:08:09;3.33;;;1.00;;
69358;SDS011;56520;49.066;8.660;2023-06-05T06:10:36;3.08;;;0.90;;
69358;SDS011;56520;49.066;8.660;2023-06-05T06:13:01;4.32;;;1.10;;
69358;SDS011;56520;49.066;8.660;2023-06-05T06:15:27;3.33;;;1.20;;
69358;SDS011;56520;49.066;8.660;2023-06-05T06:17:53;3.58;;;1.00;;
69358;SDS011;56520;49.066;8.660;2023-06-05T06:20:18;4.45;;;1.23;;
69358;SDS011;56520;49.066;8.660;2023-06-05T06:22:44;3.17;;;1.15;;
69358;SDS011;56520;49.066;8.660;2023-06-05T06:25:12;2.97;;;1.02;;
69358;SDS011;56520;49.066;8.660;2023-06-05T06:27:39;2.60;;;0.90;;
69358;SDS011;56520;49.066;8.660;2023-06-05T06:30:05;3.75;;;1.33;;
69358;SDS011;56520;49.066;8.660;2023-06-05T06:32:32;2.53;;;1.10;;
69358;SDS011;56520;49.066;8.660;2023-06-05T06:34:57;2.80;;;1.08;;
69358;SDS011;56520;49.066;8.660;2023-06-05T06:37:23;3.55;;;0.90;;
69358;SDS011;56520;49.066;8.660;2023-06-05T06:39:48;2.70;;;0.85;;
69358;SDS011;56520;49.066;8.660;2023-06-05T06:42:14;3.53;;;1.33;;
69358;SDS011;56520;49.066;8.660;2023-06-05T06:44:40;3.83;;;1.00;;
69358;SDS011;56520;49.066;8.660;2023-06-05T06:47:05;2.97;;;0.93;;
69358;SDS011;56520;49.066;8.660;2023-06-05T06:49:34;5.88;;;1.52;;
69358;SDS011;56520;49.066;8.660;2023-06-05T06:52:03;2.88;;;1.00;;
69358;SDS011;56520;49.066;8.660;2023-06-05T06:54:28;4.82;;;1.58;;
69358;SDS011;56520;49.066;8.660;2023-06-05T06:56:55;4.63;;;1.23;;
69358;SDS011;56520;49.066;8.660;2023-06-05T06:59:24;5.35;;;1.20;;
69358;SDS011;56520;49.066;8.660;2023-06-05T07:04:37;3.78;;;1.42;;
69358;SDS011;56520;49.066;8.660;2023-06-05T07:07:04;3.75;;;1.27;;
69358;SDS011;56520;49.066;8.660;2023-06-05T07:09:29;2.83;;;1.20;;
69358;SDS011;56520;49.066;8.660;2023-06-05T07:11:55;2.83;;;0.85;;
69358;SDS011;56520;49.066;8.660;2023-06-05T07:14:21;4.05;;;1.20;;
69358;SDS011;56520;49.066;8.660;2023-06-05T07:16:47;3.78;;;1.15;;
69358;SDS011;56520;49.066;8.660;2023-06-05T07:19:15;3.03;;;0.93;;
69358;SDS011;56520;49.066;8.660;2023-06-05T07:21:40;3.75;;;1.15;;
69358;SDS011;56520;49.066;8.660;2023-06-05T07:24:06;3.15;;;1.10;;
69358;SDS011;56520;49.066;8.660;2023-06-05T07:26:32;4.47;;;1.30;;
69358;SDS011;56520;49.066;8.660;2023-06-05T07:28:58;2.83;;;0.90;;
69358;SDS011;56520;49.066;8.660;2023-06-05T07:31:23;4.07;;;1.33;;
69358;SDS011;56520;49.066;8.660;2023-06-05T07:33:49;3.08;;;1.10;;
69358;SDS011;56520;49.066;8.660;2023-06-05T07:36:14;3.42;;;1.23;;
69358;SDS011;56520;49.066;8.660;2023-06-05T07:38:40;2.63;;;1.05;;
69358;SDS011;56520;49.066;8.660;2023-06-05T07:41:06;3.42;;;1.20;;
69358;SDS011;56520;49.066;8.660;2023-06-05T07:43:37;3.58;;;1.30;;
69358;SDS011;56520;49.066;8.660;2023-06-05T07:46:05;4.05;;;1.42;;
69358;SDS011;56520;49.066;8.660;2023-06-05T07:48:31;4.25;;;1.10;;
69358;SDS011;56520;49.066;8.660;2023-06-05T07:50:56;3.05;;;1.20;;
69358;SDS011;56520;49.066;8.660;2023-06-05T07:53:22;3.40;;;1.35;;
69358;SDS011;56520;49.066;8.660;2023-06-05T07:55:48;4.28;;;1.48;;
69358;SDS011;56520;49.066;8.660;2023-06-05T07:58:13;3.63;;;1.20;;
69358;SDS011;56520;49.066;8.660;2023-06-05T08:00:40;5.20;;;1.30;;
69358;SDS011;56520;49.066;8.660;2023-06-05T08:03:13;4.82;;;1.45;;
69358;SDS011;56520;49.066;8.660;2023-06-05T08:05:45;6.18;;;1.40;;
69358;SDS011;56520;49.066;8.660;2023-06-05T08:08:11;5.60;;;1.30;;
69358;SDS011;56520;49.066;8.660;2023-06-05T08:10:36;3.28;;;1.10;;
69358;SDS011;56520;49.066;8.660;2023-06-05T08:13:01;4.35;;;1.60;;
69358;SDS011;56520;49.066;8.660;2023-06-05T08:15:28;4.05;;;1.42;;
69358;SDS011;56520;49.066;8.660;2023-06-05T08:17:53;6.65;;;1.50;;
69358;SDS011;56520;49.066;8.660;2023-06-05T08:20:18;3.28;;;1.20;;
69358;SDS011;56520;49.066;8.660;2023-06-05T08:22:45;3.03;;;1.10;;
69358;SDS011;56520;49.066;8.660;2023-06-05T08:25:10;6.13;;;1.42;;
69358;SDS011;56520;49.066;8.660;2023-06-05T08:27:36;3.60;;;1.20;;
69358;SDS011;56520;49.066;8.660;2023-06-05T08:30:04;4.00;;;1.40;;
69358;SDS011;56520;49.066;8.660;2023-06-05T08:32:30;3.95;;;1.10;;
69358;SDS011;56520;49.066;8.660;2023-06-05T08:34:56;5.18;;;1.58;;
69358;SDS011;56520;49.066;8.660;2023-06-05T08:37:21;4.75;;;1.45;;
69358;SDS011;56520;49.066;8.660;2023-06-05T08:39:47;5.65;;;1.63;;
69358;SDS011;56520;49.066;8.660;2023-06-05T08:42:13;5.22;;;1.42;;
69358;SDS011;56520;49.066;8.660;2023-06-05T08:44:43;4.82;;;1.60;;
69358;SDS011;56520;49.066;8.660;2023-06-05T08:47:08;4.68;;;1.30;;
69358;SDS011;56520;49.066;8.660;2023-06-05T08:49:36;5.18;;;1.33;;
69358;SDS011;56520;49.066;8.660;2023-06-05T08:52:05;4.18;;;1.50;;
69358;SDS011;56520;49.066;8.660;2023-06-05T08:54:33;5.18;;;1.80;;
69358;SDS011;56520;49.066;8.660;2023-06-05T08:57:01;4.10;;;1.52;;
69358;SDS011;56520;49.066;8.660;2023-06-05T08:59:29;4.13;;;1.50;;
69358;SDS011;56520;49.066;8.660;2023-06-05T09:01:55;4.20;;;1.60;;
69358;SDS011;56520;49.066;8.660;2023-06-05T09:04:22;5.85;;;1.83;;
69358;SDS011;56520;49.066;8.660;2023-06-05T09:06:49;6.47;;;1.77;;
69358;SDS011;56520;49.066;8.660;2023-06-05T09:09:17;4.50;;;1.40;;
69358;SDS011;56520;49.066;8.660;2023-06-05T09:11:43;4.80;;;1.73;;
69358;SDS011;56520;49.066;8.660;2023-06-05T09:14:08;4.35;;;1.52;;
69358;SDS011;56520;49.066;8.660;2023-06-05T09:16:37;3.47;;;1.20;;
69358;SDS011;56520;49.066;8.660;2023-06-05T09:19:04;5.05;;;1.58;;
69358;SDS011;56520;49.066;8.660;2023-06-05T09:21:30;3.58;;;1.30;;
69358;SDS011;56520;49.066;8.660;2023-06-05T09:26:48;4.57;;;1.70;;
69358;SDS011;56520;49.066;8.660;2023-06-05T09:29:19;4.07;;;1.50;;
69358;SDS011;56520;49.066;8.660;2023-06-05T09:31:46;4.97;;;1.45;;
69358;SDS011;56520;49.066;8.660;2023-06-05T09:34:19;5.10;;;1.65;;
69358;SDS011;56520;49.066;8.660;2023-06-05T09:36:49;4.95;;;1.55;;
69358;SDS011;56520;49.066;8.660;2023-06-05T09:39:15;5.65;;;1.70;;
69358;SDS011;56520;49.066;8.660;2023-06-05T09:41:44;5.20;;;1.67;;
69358;SDS011;56520;49.066;8.660;2023-06-05T09:44:11;5.95;;;1.73;;
69358;SDS011;56520;49.066;8.660;2023-06-05T09:49:30;4.88;;;1.52;;
69358;SDS011;56520;49.066;8.660;2023-06-05T09:51:58;5.50;;;1.70;;
69358;SDS011;56520;49.066;8.660;2023-06-05T09:54:30;5.72;;;1.95;;
69358;SDS011;56520;49.066;8.660;2023-06-05T09:57:00;8.77;;;1.95;;
69358;SDS011;56520;49.066;8.660;2023-06-05T09:59:28;6.45;;;1.92;;
69358;SDS011;56520;49.066;8.660;2023-06-05T10:02:02;4.65;;;1.73;;
69358;SDS011;56520;49.066;8.660;2023-06-05T10:04:33;5.97;;;1.63;;
69358;SDS011;56520;49.066;8.660;2023-06-05T10:07:04;5.47;;;1.98;;
69358;SDS011;56520;49.066;8.660;2023-06-05T10:09:30;5.72;;;1.92;;
69358;SDS011;56520;49.066;8.660;2023-06-05T10:11:56;6.63;;;2.10;;
69358;SDS011;56520;49.066;8.660;2023-06-05T10:14:23;5.65;;;2.00;;
69358;SDS011;56520;49.066;8.660;2023-06-05T10:16:49;5.47;;;1.85;;
69358;SDS011;56520;49.066;8.660;2023-06-05T10:19:19;6.57;;;1.90;;
69358;SDS011;56520;49.066;8.660;2023-06-05T10:21:48;6.82;;;2.28;;
69358;SDS011;56520;49.066;8.660;2023-06-05T10:24:19;4.72;;;1.95;;
69358;SDS011;56520;49.066;8.660;2023-06-05T10:40:20;7.00;;;2.50;;
69358;SDS011;56520;49.066;8.660;2023-06-05T10:42:48;9.02;;;2.30;;
69358;SDS011;56520;49.066;8.660;2023-06-05T10:45:26;5.97;;;2.10;;
69358;SDS011;56520;49.066;8.660;2023-06-05T10:47:57;6.43;;;2.00;;
69358;SDS011;56520;49.066;8.660;2023-06-05T10:50:23;5.78;;;1.90;;
69358;SDS011;56520;49.066;8.660;2023-06-05T10:52:53;5.70;;;1.70;;
69358;SDS011;56520;49.066;8.660;2023-06-05T10:55:21;6.72;;;1.88;;
69358;SDS011;56520;49.066;8.660;2023-06-05T11:00:34;6.85;;;2.10;;
69358;SDS011;56520;49.066;8.660;2023-06-05T11:03:00;6.03;;;1.70;;
69358;SDS011;56520;49.066;8.660;2023-06-05T11:05:27;4.72;;;1.90;;
69358;SDS011;56520;49.066;8.660;2023-06-05T11:08:14;5.57;;;1.80;;
69358;SDS011;56520;49.066;8.660;2023-06-05T11:11:01;4.97;;;1.70;;
69358;SDS011;56520;49.066;8.660;2023-06-05T11:16:30;5.22;;;1.70;;
69358;SDS011;56520;49.066;8.660;2023-06-05T11:24:35;5.70;;;1.58;;
69358;SDS011;56520;49.066;8.660;2023-06-05T11:27:04;4.45;;;1.52;;
69358;SDS011;56520;49.066;8.660;2023-06-05T11:29:30;4.93;;;1.60;;
69358;SDS011;56520;49.066;8.660;2023-06-05T11:31:56;3.85;;;1.40;;
69358;SDS011;56520;49.066;8.660;2023-06-05T11:34:22;5.22;;;1.73;;
69358;SDS011;56520;49.066;8.660;2023-06-05T11:36:47;4.28;;;1.50;;
69358;SDS011;56520;49.066;8.660;2023-06-05T11:39:13;4.18;;;1.50;;
69358;SDS011;56520;49.066;8.660;2023-06-05T11:41:48;4.60;;;1.60;;
69358;SDS011;56520;49.066;8.660;2023-06-05T11:44:38;4.13;;;1.38;;
69358;SDS011;56520;49.066;8.660;2023-06-05T11:47:03;4.35;;;1.50;;
69358;SDS011;56520;49.066;8.660;2023-06-05T11:49:29;4.47;;;1.42;;
69358;SDS011;56520;49.066;8.660;2023-06-05T11:51:55;4.65;;;1.60;;
69358;SDS011;56520;49.066;8.660;2023-06-05T11:54:28;4.90;;;1.50;;
69358;SDS011;56520;49.066;8.660;2023-06-05T11:57:04;4.18;;;1.50;;
69358;SDS011;56520;49.066;8.660;2023-06-05T11:59:33;4.63;;;1.42;;
69358;SDS011;56520;49.066;8.660;2023-06-05T12:02:02;4.80;;;1.60;;
69358;SDS011;56520;49.066;8.660;2023-06-05T12:04:30;5.25;;;1.67;;
69358;SDS011;56520;49.066;8.660;2023-06-05T12:06:56;8.43;;;1.60;;
69358;SDS011;56520;49.066;8.660;2023-06-05T12:09:22;5.70;;;1.70;;
69358;SDS011;56520;49.066;8.660;2023-06-05T12:11:47;4.30;;;1.52;;
69358;SDS011;56520;49.066;8.660;2023-06-05T12:14:27;4.90;;;1.55;;
69358;SDS011;56520;49.066;8.660;2023-06-05T12:16:54;5.05;;;1.73;;
69358;SDS011;56520;49.066;8.660;2023-06-05T12:19:19;4.47;;;1.60;;
69358;SDS011;56520;49.066;8.660;2023-06-05T12:21:46;5.13;;;1.70;;
69358;SDS011;56520;49.066;8.660;2023-06-05T12:24:12;5.05;;;1.70;;
69358;SDS011;56520;49.066;8.660;2023-06-05T12:26:57;4.93;;;1.77;;
69358;SDS011;56520;49.066;8.660;2023-06-05T12:29:28;4.72;;;1.70;;
69358;SDS011;56520;49.066;8.660;2023-06-05T12:31:57;4.93;;;1.60;;
69358;SDS011;56520;49.066;8.660;2023-06-05T12:37:10;4.88;;;1.70;;
69358;SDS011;56520;49.066;8.660;2023-06-05T12:39:37;4.40;;;1.55;;
69358;SDS011;56520;49.066;8.660;2023-06-05T12:42:03;4.80;;;1.80;;
69358;SDS011;56520;49.066;8.660;2023-06-05T12:44:29;4.70;;;1.73;;
69358;SDS011;56520;49.066;8.660;2023-06-05T12:46:55;5.63;;;1.70;;
69358;SDS011;56520;49.066;8.660;2023-06-05T12:49:22;5.10;;;1.60;;
69358;SDS011;56520;49.066;8.660;2023-06-05T12:51:47;4.20;;;1.50;;
69358;SDS011;56520;49.066;8.660;2023-06-05T12:54:13;5.53;;;1.70;;
69358;SDS011;56520;49.066;8.660;2023-06-05T12:56:39;4.97;;;1.80;;
69358;SDS011;56520;49.066;8.660;2023-06-05T12:59:05;4.50;;;1.63;;
69358;SDS011;56520;49.066;8.660;2023-06-05T13:01:32;4.22;;;1.40;;
69358;SDS011;56520;49.066;8.660;2023-06-05T13:04:01;5.40;;;1.80;;
69358;SDS011;56520;49.066;8.660;2023-06-05T13:06:26;4.72;;;1.70;;
69358;SDS011;56520;49.066;8.660;2023-06-05T13:08:53;5.68;;;1.63;;
69358;SDS011;56520;49.066;8.660;2023-06-05T13:11:18;4.65;;;1.60;;
69358;SDS011;56520;49.066;8.660;2023-06-05T13:13:43;5.15;;;1.50;;
69358;SDS011;56520;49.066;8.660;2023-06-05T13:16:09;6.50;;;1.40;;
69358;SDS011;56520;49.066;8.660;2023-06-05T13:18:35;4.30;;;1.40;;
69358;SDS011;56520;49.066;8.660;2023-06-05T13:21:02;5.13;;;1.67;;
69358;SDS011;56520;49.066;8.660;2023-06-05T13:23:28;4.10;;;1.48;;
69358;SDS011;56520;49.066;8.660;2023-06-05T13:25:54;4.40;;;1.50;;
69358;SDS011;56520;49.066;8.660;2023-06-05T13:28:20;3.63;;;1.40;;
69358;SDS011;56520;49.066;8.660;2023-06-05T13:30:45;4.63;;;1.50;;
69358;SDS011;56520;49.066;8.660;2023-06-05T13:33:12;4.43;;;1.52;;
69358;SDS011;56520;49.066;8.660;2023-06-05T13:35:38;5.22;;;1.35;;
69358;SDS011;56520;49.066;8.660;2023-06-05T13:38:03;4.90;;;1.30;;
69358;SDS011;56520;49.066;8.660;2023-06-05T13:40:29;6.13;;;1.55;;
69358;SDS011;56520;49.066;8.660;2023-06-05T13:42:56;4.28;;;1.30;;
69358;SDS011;56520;49.066;8.660;2023-06-05T13:45:21;6.50;;;1.50;;
69358;SDS011;56520;49.066;8.660;2023-06-05T13:47:47;3.40;;;1.30;;
69358;SDS011;56520;49.066;8.660;2023-06-05T13:50:12;5.53;;;1.45;;
69358;SDS011;56520;49.066;8.660;2023-06-05T13:52:38;5.68;;;1.40;;
69358;SDS011;56520;49.066;8.660;2023-06-05T13:55:04;3.78;;;1.35;;
69358;SDS011;56520;49.066;8.660;2023-06-05T13:57:30;4.95;;;1.63;;
69358;SDS011;56520;49.066;8.660;2023-06-05T13:59:55;4.28;;;1.27;;
69358;SDS011;56520;49.066;8.660;2023-06-05T14:02:22;3.42;;;1.30;;
69358;SDS011;56520;49.066;8.660;2023-06-05T14:04:47;4.05;;;1.23;;
69358;SDS011;56520;49.066;8.660;2023-06-05T14:07:13;4.25;;;1.33;;
69358;SDS011;56520;49.066;8.660;2023-06-05T14:09:38;3.53;;;1.23;;
69358;SDS011;56520;49.066;8.660;2023-06-05T14:12:04;4.05;;;1.30;;
69358;SDS011;56520;49.066;8.660;2023-06-05T14:14:29;5.32;;;1.52;;
69358;SDS011;56520;49.066;8.660;2023-06-05T14:16:55;3.97;;;1.35;;
69358;SDS011;56520;49.066;8.660;2023-06-05T14:19:20;3.95;;;1.27;;
69358;SDS011;56520;49.066;8.660;2023-06-05T14:21:46;4.20;;;1.42;;
69358;SDS011;56520;49.066;8.660;2023-06-05T14:24:11;3.90;;;1.40;;
69358;SDS011;56520;49.066;8.660;2023-06-05T14:26:37;6.25;;;1.42;;
69358;SDS011;56520;49.066;8.660;2023-06-05T14:29:03;3.90;;;1.25;;
69358;SDS011;56520;49.066;8.660;2023-06-05T14:31:29;5.28;;;1.40;;
69358;SDS011;56520;49.066;8.660;2023-06-05T14:33:54;4.57;;;1.33;;
69358;SDS011;56520;49.066;8.660;2023-06-05T14:36:20;4.25;;;1.30;;
69358;SDS011;56520;49.066;8.660;2023-06-05T14:38:48;4.22;;;1.33;;
69358;SDS011;56520;49.066;8.660;2023-06-05T14:41:13;5.32;;;1.50;;
69358;SDS011;56520;49.066;8.660;2023-06-05T14:43:39;4.47;;;1.60;;
69358;SDS011;56520;49.066;8.660;2023-06-05T14:46:04;5.22;;;1.45;;
69358;SDS011;56520;49.066;8.660;2023-06-05T14:48:30;3.95;;;1.20;;
69358;SDS011;56520;49.066;8.660;2023-06-05T14:50:56;4.95;;;1.50;;
69358;SDS011;56520;49.066;8.660;2023-06-05T14:53:22;4.22;;;1.20;;
69358;SDS011;56520;49.066;8.660;2023-06-05T14:55:47;4.22;;;1.30;;
69358;SDS011;56520;49.066;8.660;2023-06-05T14:58:13;4.13;;;1.40;;
69358;SDS011;56520;49.066;8.660;2023-06-05T15:00:38;4.05;;;1.20;;
69358;SDS011;56520;49.066;8.660;2023-06-05T15:03:04;3.75;;;1.17;;
69358;SDS011;56520;49.066;8.660;2023-06-05T15:05:32;4.25;;;1.58;;
69358;SDS011;56520;49.066;8.660;2023-06-05T15:07:58;4.30;;;1.50;;
69358;SDS011;56520;49.066;8.660;2023-06-05T15:10:24;3.70;;;1.33;;
69358;SDS011;56520;49.066;8.660;2023-06-05T15:12:49;6.25;;;1.30;;
69358;SDS011;56520;49.066;8.660;2023-06-05T15:15:21;4.88;;;1.30;;
69358;SDS011;56520;49.066;8.660;2023-06-05T15:17:47;4.43;;;1.20;;
69358;SDS011;56520;49.066;8.660;2023-06-05T15:20:13;5.10;;;1.58;;
69358;SDS011;56520;49.066;8.660;2023-06-05T15:22:38;4.15;;;1.40;;
69358;SDS011;56520;49.066;8.660;2023-06-05T15:25:04;4.15;;;1.10;;
69358;SDS011;56520;49.066;8.660;2023-06-05T15:27:30;4.35;;;1.30;;